Time;durP1;ratioP1;P1;durP2;ratioP2;P2;SDS_P1;SDS_P2;PMS_P1;PMS_P2;Temp;Humidity;BMP_temperature;BMP_pressure;BME280_temperature;BME280_humidity;BME280_pressure;Samples;Min_cycle;Max_cycle;Signal;HPM_P1;HPM_P2
2023/02/11 00:01:33;;;;;;;5.20;2.93;;;29.00;61.90;;;;;;5071617;28;20187;-70
2023/02/11 00:04:01;;;;;;;6.63;3.20;;;29.20;61.00;;;;;;5070269;28;20658;-71
2023/02/11 00:06:31;;;;;;;7.03;3.23;;;29.30;59.90;;;;;;5068920;28;20178;-73
2023/02/11 00:08:59;;;;;;;4.93;3.07;;;29.30;59.40;;;;;;5069187;28;20194;-70
2023/02/11 00:11:30;;;;;;;6.17;2.80;;;29.60;58.60;;;;;;5068680;28;20179;-71
2023/02/11 00:14:04;;;;;;;6.87;3.23;;;29.40;57.60;;;;;;5067934;28;20646;-71
2023/02/11 00:19:53;;;;;;;4.90;2.90;;;29.70;58.60;;;;;;5070358;28;20286;-71
2023/02/11 00:22:21;;;;;;;5.33;2.87;;;29.70;57.80;;;;;;5071550;28;20237;-70
2023/02/11 00:24:49;;;;;;;5.60;2.83;;;29.80;57.90;;;;;;5066870;28;20641;-71
2023/02/11 00:27:16;;;;;;;9.47;2.83;;;30.00;57.80;;;;;;5070263;28;20266;-71
2023/02/11 00:29:43;;;;;;;9.20;2.80;;;30.30;55.90;;;;;;5069282;28;20275;-71
2023/02/11 00:32:11;;;;;;;9.70;2.43;;;30.50;54.80;;;;;;5069414;28;20187;-71
2023/02/11 00:34:38;;;;;;;6.87;3.33;;;30.50;55.10;;;;;;5066924;28;20221;-72
2023/02/11 00:37:06;;;;;;;6.40;3.10;;;30.20;56.10;;;;;;5070438;28;20183;-71
2023/02/11 00:39:33;;;;;;;6.10;2.73;;;30.30;56.10;;;;;;5067856;28;20194;-70
2023/02/11 00:42:02;;;;;;;7.53;3.00;;;30.50;55.10;;;;;;5063272;28;20187;-70
2023/02/11 00:44:30;;;;;;;4.30;2.20;;;30.90;54.60;;;;;;5066763;28;20197;-72
2023/02/11 00:46:57;;;;;;;5.82;2.80;;;31.10;53.30;;;;;;5066913;28;20180;-71
2023/02/11 00:49:24;;;;;;;4.77;2.80;;;31.20;52.50;;;;;;5070773;28;20905;-71
2023/02/11 00:51:52;;;;;;;6.10;2.50;;;31.40;52.30;;;;;;5069533;28;20222;-72
2023/02/11 00:54:19;;;;;;;4.60;3.00;;;31.70;51.20;;;;;;5068256;28;20217;-74
2023/02/11 00:56:46;;;;;;;5.95;2.58;;;31.40;51.90;;;;;;5068278;28;20190;-74
2023/02/11 00:59:14;;;;;;;8.93;2.88;;;31.30;52.60;;;;;;5068350;28;20701;-73
2023/02/11 01:01:41;;;;;;;6.50;3.00;;;31.50;52.50;;;;;;5066710;28;20213;-72
2023/02/11 01:04:09;;;;;;;6.22;3.10;;;31.30;51.50;;;;;;5066501;28;20191;-72
2023/02/11 01:06:36;;;;;;;6.97;2.63;;;31.30;53.50;;;;;;5063864;28;20206;-72
2023/02/11 01:09:04;;;;;;;6.07;3.00;;;31.30;52.20;;;;;;5066887;28;20233;-73
2023/02/11 01:11:31;;;;;;;5.40;2.90;;;31.30;53.60;;;;;;5070100;28;20191;-70
2023/02/11 01:13:59;;;;;;;8.55;3.10;;;31.70;52.40;;;;;;5068418;28;20190;-71
2023/02/11 01:16:26;;;;;;;9.20;3.08;;;31.80;51.90;;;;;;5069504;28;20346;-70
2023/02/11 01:18:53;;;;;;;6.18;3.17;;;31.90;51.70;;;;;;5069986;28;20270;-71
2023/02/11 01:21:21;;;;;;;13.43;3.65;;;32.20;51.20;;;;;;5069801;28;20182;-71
2023/02/11 01:23:48;;;;;;;12.45;3.13;;;32.20;51.70;;;;;;5071195;28;20167;-71
2023/02/11 01:26:16;;;;;;;5.97;2.97;;;32.20;53.70;;;;;;5071788;28;20190;-76
2023/02/11 01:28:43;;;;;;;7.05;3.10;;;32.20;53.30;;;;;;5070592;28;20676;-71
2023/02/11 01:31:11;;;;;;;7.50;3.40;;;31.90;53.70;;;;;;5069783;28;20179;-71
2023/02/11 01:33:38;;;;;;;4.43;2.70;;;32.00;54.90;;;;;;5068331;28;20179;-72
2023/02/11 01:36:07;;;;;;;9.77;2.80;;;32.10;54.30;;;;;;5069183;28;20211;-71
2023/02/11 01:38:35;;;;;;;8.77;3.30;;;32.30;54.00;;;;;;5069044;28;20218;-73
2023/02/11 01:41:10;;;;;;;8.68;2.90;;;32.20;53.90;;;;;;5071604;28;20183;-71
2023/02/11 01:43:43;;;;;;;9.38;2.88;;;32.10;53.80;;;;;;5073476;28;20198;-71
2023/02/11 01:46:35;;;;;;;8.68;2.90;;;32.00;54.60;;;;;;5073988;28;20528;-70
2023/02/11 01:49:17;;;;;;;7.85;2.67;;;32.30;53.90;;;;;;5073816;28;20178;-74
2023/02/11 01:51:48;;;;;;;6.32;2.90;;;32.20;53.00;;;;;;5073351;28;20218;-70
2023/02/11 01:57:23;;;;;;;6.45;2.67;;;31.90;53.20;;;;;;5070833;28;20190;-72
2023/02/11 01:59:59;;;;;;;4.50;2.30;;;32.10;53.50;;;;;;5071073;28;20244;-71
2023/02/11 02:02:42;;;;;;;6.57;2.78;;;32.00;52.30;;;;;;5071538;28;20179;-70
2023/02/11 02:05:40;;;;;;;6.88;2.88;;;32.30;52.70;;;;;;5073601;28;20179;-73
2023/02/11 02:08:22;;;;;;;5.72;2.88;;;32.10;51.60;;;;;;5073608;28;20198;-71
2023/02/11 02:10:55;;;;;;;6.32;3.03;;;32.20;51.90;;;;;;5073701;28;20195;-71
2023/02/11 02:13:30;;;;;;;6.40;3.25;;;32.30;51.80;;;;;;5092520;28;20184;-71
2023/02/11 02:16:20;;;;;;;7.60;2.90;;;32.30;51.70;;;;;;5072561;28;20186;-71
2023/02/11 02:19:08;;;;;;;7.25;3.08;;;32.60;51.60;;;;;;5073696;28;20203;-71
2023/02/11 02:22:04;;;;;;;6.28;3.17;;;32.60;51.10;;;;;;5074021;28;20241;-75
2023/02/11 02:24:59;;;;;;;6.32;2.45;;;32.50;50.20;;;;;;5073055;28;20184;-72
2023/02/11 02:27:45;;;;;;;7.22;2.40;;;32.60;50.80;;;;;;5070380;28;20191;-73
2023/02/11 02:30:44;;;;;;;5.65;2.35;;;32.50;50.90;;;;;;5070972;28;20657;-71
2023/02/11 02:33:24;;;;;;;4.75;2.30;;;32.50;51.40;;;;;;5067712;28;20226;-70
2023/02/11 02:36:04;;;;;;;6.38;2.40;;;32.90;50.00;;;;;;5073016;28;20228;-70
2023/02/11 02:38:40;;;;;;;4.38;2.30;;;32.90;50.50;;;;;;5073034;28;20237;-70
2023/02/11 02:41:15;;;;;;;7.07;2.75;;;32.70;51.60;;;;;;5073204;28;20545;-71
2023/02/11 02:43:50;;;;;;;7.57;2.55;;;32.60;51.50;;;;;;5069632;28;20186;-70
2023/02/11 02:46:22;;;;;;;5.82;2.55;;;32.60;52.30;;;;;;5071052;28;20527;-72
2023/02/11 02:48:51;;;;;;;6.50;2.30;;;32.70;52.40;;;;;;5073273;28;20225;-69
2023/02/11 02:51:35;;;;;;;6.20;2.63;;;32.90;52.20;;;;;;5072579;28;20206;-72
2023/02/11 02:54:30;;;;;;;7.63;2.42;;;32.30;53.90;;;;;;5071684;28;20556;-71
2023/02/11 02:57:00;;;;;;;11.52;3.03;;;32.40;53.30;;;;;;5072407;28;20179;-71
2023/02/11 02:59:53;;;;;;;6.30;2.45;;;32.40;53.30;;;;;;5070940;28;20571;-70
2023/02/11 03:02:48;;;;;;;6.28;2.50;;;32.30;54.40;;;;;;5059745;28;20651;-71
2023/02/11 03:06:10;;;;;;;6.20;2.50;;;32.30;54.20;;;;;;5072540;28;20180;-70
2023/02/11 03:08:50;;;;;;;12.13;2.53;;;32.60;54.10;;;;;;5058129;28;20202;-72
2023/02/11 03:11:20;;;;;;;7.60;2.72;;;32.90;52.50;;;;;;5072470;27;20187;-71
2023/02/11 03:13:49;;;;;;;9.05;2.65;;;33.30;52.20;;;;;;5069278;28;20228;-70
2023/02/11 03:16:27;;;;;;;4.20;2.33;;;33.20;51.90;;;;;;5072176;28;20219;-70
2023/02/11 03:19:05;;;;;;;6.75;2.65;;;33.30;51.40;;;;;;5070341;28;20571;-71
2023/02/11 03:21:35;;;;;;;7.70;3.45;;;33.30;51.30;;;;;;5068994;28;20175;-70
2023/02/11 03:24:07;;;;;;;8.35;2.88;;;33.30;51.60;;;;;;5072540;28;20186;-70
2023/02/11 03:27:04;;;;;;;8.00;2.78;;;33.30;50.00;;;;;;5071974;28;20287;-71
2023/02/11 03:29:58;;;;;;;6.95;2.25;;;33.30;50.50;;;;;;5070311;28;20187;-73
2023/02/11 03:32:40;;;;;;;6.28;2.38;;;33.00;49.90;;;;;;5064494;28;20188;-73
2023/02/11 03:35:19;;;;;;;8.88;2.70;;;33.00;49.80;;;;;;5070255;28;20190;-72
2023/02/11 03:37:55;;;;;;;5.93;2.30;;;33.10;49.80;;;;;;5070872;28;20210;-69
2023/02/11 03:40:28;;;;;;;7.45;2.28;;;33.30;48.70;;;;;;5070779;28;20214;-69
2023/02/11 03:42:58;;;;;;;9.40;2.15;;;33.20;49.10;;;;;;5071605;28;20616;-70
2023/02/11 03:45:27;;;;;;;8.60;2.28;;;32.90;49.50;;;;;;5070825;28;20258;-70
2023/02/11 03:48:11;;;;;;;8.25;2.10;;;32.50;50.60;;;;;;5071635;28;20183;-73
2023/02/11 03:50:40;;;;;;;7.35;2.60;;;32.90;49.30;;;;;;5072032;28;20179;-71
2023/02/11 03:53:09;;;;;;;5.82;2.13;;;32.80;49.70;;;;;;5068237;28;20231;-71
2023/02/11 03:55:39;;;;;;;6.30;2.50;;;32.50;51.10;;;;;;5069357;28;20274;-72
2023/02/11 03:58:08;;;;;;;6.00;2.38;;;32.70;51.10;;;;;;5071205;28;20242;-82
2023/02/11 04:00:38;;;;;;;7.75;2.28;;;32.60;51.50;;;;;;5066886;28;20501;-70
2023/02/11 04:03:07;;;;;;;8.38;2.28;;;32.40;52.60;;;;;;5071920;28;20214;-73
2023/02/11 04:05:34;;;;;;;9.38;2.53;;;32.60;51.90;;;;;;5071821;28;20203;-76
2023/02/11 04:08:02;;;;;;;10.60;2.42;;;32.60;51.80;;;;;;5066959;28;20218;-72
2023/02/11 04:10:30;;;;;;;7.40;2.22;;;32.60;52.30;;;;;;5071116;28;20233;-73
2023/02/11 04:12:57;;;;;;;6.85;2.30;;;32.80;52.00;;;;;;5070126;28;20179;-77
2023/02/11 04:15:25;;;;;;;5.80;2.33;;;32.80;51.60;;;;;;5064484;28;20183;-72
2023/02/11 04:17:52;;;;;;;7.53;2.15;;;33.10;51.20;;;;;;5070975;28;20943;-74
2023/02/11 04:20:20;;;;;;;5.38;2.50;;;33.30;50.10;;;;;;5061558;28;20285;-80
2023/02/11 04:22:47;;;;;;;6.20;2.10;;;32.90;50.70;;;;;;5062813;28;20669;-72
2023/02/11 04:25:14;;;;;;;5.10;2.20;;;33.10;50.90;;;;;;5069506;28;20235;-80
2023/02/11 04:27:41;;;;;;;7.07;2.17;;;33.00;50.50;;;;;;5070953;28;20171;-75
2023/02/11 04:30:09;;;;;;;4.90;2.13;;;33.40;49.30;;;;;;5068854;28;20280;-77
2023/02/11 04:32:37;;;;;;;5.05;2.03;;;33.60;48.30;;;;;;5070995;28;20183;-72
2023/02/11 04:35:04;;;;;;;5.00;2.10;;;33.40;48.70;;;;;;5069494;28;20187;-74
2023/02/11 04:37:32;;;;;;;5.90;2.10;;;34.10;47.80;;;;;;5068884;28;20203;-75
2023/02/11 04:39:59;;;;;;;4.55;2.13;;;33.70;47.30;;;;;;5070191;28;20237;-73
2023/02/11 04:42:26;;;;;;;5.55;2.05;;;33.40;47.40;;;;;;5070815;28;20236;-75
2023/02/11 04:44:54;;;;;;;8.18;2.42;;;33.60;47.60;;;;;;5070133;28;20210;-76
2023/02/11 04:47:21;;;;;;;4.97;1.90;;;33.80;47.70;;;;;;5071015;28;20253;-76
2023/02/11 04:49:48;;;;;;;8.27;2.47;;;33.60;47.90;;;;;;5069153;28;20221;-73
2023/02/11 04:52:16;;;;;;;5.63;2.47;;;34.00;47.10;;;;;;5070358;28;20642;-73
2023/02/11 04:54:43;;;;;;;8.90;2.40;;;34.40;46.20;;;;;;5070281;28;20183;-74
2023/02/11 04:57:10;;;;;;;9.38;2.10;;;34.40;46.10;;;;;;5070915;28;20194;-73
2023/02/11 04:59:38;;;;;;;8.10;2.20;;;34.30;46.00;;;;;;5069799;28;20562;-76
2023/02/11 05:02:05;;;;;;;6.50;1.80;;;34.50;45.90;;;;;;5070406;28;20204;-77
2023/02/11 05:04:32;;;;;;;5.95;2.45;;;34.30;45.30;;;;;;5070229;28;20221;-82
2023/02/11 05:07:00;;;;;;;4.90;2.47;;;33.90;46.80;;;;;;5070733;28;20179;-74
2023/02/11 05:09:27;;;;;;;7.00;2.67;;;34.20;46.60;;;;;;5068116;28;20171;-70
2023/02/11 05:11:54;;;;;;;4.15;2.08;;;34.50;46.10;;;;;;5070131;28;20187;-71
2023/02/11 05:14:22;;;;;;;6.25;2.20;;;34.80;45.90;;;;;;5070554;28;20649;-71
2023/02/11 05:16:49;;;;;;;8.05;2.05;;;35.20;44.50;;;;;;5070809;28;20194;-72
2023/02/11 05:19:16;;;;;;;9.48;2.72;;;34.80;45.10;;;;;;5066343;28;20917;-71
2023/02/11 05:21:44;;;;;;;3.88;1.70;;;34.80;44.00;;;;;;5070036;28;20191;-70
2023/02/11 05:24:11;;;;;;;7.47;2.22;;;34.60;45.40;;;;;;5068273;28;20203;-71
2023/02/11 05:26:38;;;;;;;7.60;2.22;;;35.20;44.90;;;;;;5069387;28;20210;-70
2023/02/11 05:29:07;;;;;;;6.82;2.33;;;35.30;45.00;;;;;;5069778;28;20187;-72
2023/02/11 05:31:34;;;;;;;6.22;2.22;;;35.30;44.00;;;;;;5070578;28;20548;-71
2023/02/11 05:34:02;;;;;;;10.07;2.50;;;34.40;46.00;;;;;;5066162;28;20188;-73
2023/02/11 05:36:30;;;;;;;7.88;2.30;;;34.80;45.80;;;;;;5070032;28;20221;-79
2023/02/11 05:38:58;;;;;;;6.20;2.40;;;34.80;45.30;;;;;;5069010;28;20272;-71
2023/02/11 05:41:25;;;;;;;4.20;1.92;;;34.90;45.90;;;;;;5070175;28;20266;-76
2023/02/11 05:43:52;;;;;;;5.57;2.45;;;34.70;46.10;;;;;;5067790;28;20207;-69
2023/02/11 05:46:20;;;;;;;8.57;2.55;;;33.00;49.90;;;;;;5070319;28;20263;-72
2023/02/11 05:48:47;;;;;;;15.32;2.60;;;32.40;51.80;;;;;;5070280;28;20198;-70
2023/02/11 05:51:14;;;;;;;11.52;2.65;;;32.70;51.20;;;;;;5069029;28;20191;-69
2023/02/11 05:53:42;;;;;;;6.65;2.70;;;31.80;54.10;;;;;;5069985;28;20627;-75
2023/02/11 05:56:10;;;;;;;6.35;2.20;;;30.80;55.90;;;;;;5068854;28;20183;-79
2023/02/11 05:58:37;;;;;;;10.05;2.58;;;30.40;56.80;;;;;;5069739;28;20211;-77
2023/02/11 06:01:05;;;;;;;10.38;3.08;;;31.40;54.70;;;;;;5067738;28;20187;-74
2023/02/11 06:03:32;;;;;;;7.07;2.70;;;32.40;52.50;;;;;;5069574;28;20329;-72
2023/02/11 06:06:00;;;;;;;13.50;2.70;;;33.00;51.60;;;;;;5067715;28;20860;-70
2023/02/11 06:08:27;;;;;;;9.75;2.50;;;33.30;50.60;;;;;;5072097;28;20217;-71
2023/02/11 06:10:54;;;;;;;11.27;2.60;;;33.70;49.60;;;;;;5073363;28;20195;-72
2023/02/11 06:13:22;;;;;;;6.70;2.60;;;34.00;47.80;;;;;;5069162;28;20532;-74
2023/02/11 06:16:00;;;;;;;7.63;2.55;;;33.80;48.10;;;;;;5070861;28;20551;-77
2023/02/11 06:18:28;;;;;;;11.18;2.95;;;33.80;47.40;;;;;;5073345;28;20569;-74
2023/02/11 06:20:56;;;;;;;7.95;2.83;;;33.70;47.10;;;;;;5071371;28;20240;-74
2023/02/11 06:23:23;;;;;;;7.78;2.25;;;33.00;48.70;;;;;;5068454;28;20179;-77
2023/02/11 06:25:51;;;;;;;10.75;2.50;;;32.60;49.20;;;;;;5073405;28;20642;-76
2023/02/11 06:28:19;;;;;;;8.18;2.80;;;31.50;51.80;;;;;;5070979;28;20650;-77
2023/02/11 06:30:46;;;;;;;9.50;2.50;;;30.40;54.60;;;;;;5066822;28;20179;-77
2023/02/11 06:33:13;;;;;;;9.73;2.38;;;30.50;55.30;;;;;;5068968;28;20194;-72
2023/02/11 06:35:41;;;;;;;12.38;2.88;;;31.20;53.40;;;;;;5072817;28;20329;-75
2023/02/11 06:38:08;;;;;;;11.00;2.80;;;32.20;50.80;;;;;;5072237;28;20737;-76
2023/02/11 06:40:35;;;;;;;8.43;2.50;;;32.30;50.60;;;;;;5073719;28;20206;-75
2023/02/11 06:43:02;;;;;;;8.98;2.83;;;32.30;50.10;;;;;;5072436;28;20190;-71
2023/02/11 06:45:30;;;;;;;8.48;2.47;;;32.90;49.00;;;;;;5072773;28;20678;-74
2023/02/11 06:47:57;;;;;;;6.85;2.45;;;31.90;50.60;;;;;;5071664;28;20175;-71
2023/02/11 06:50:24;;;;;;;9.98;3.60;;;30.70;53.40;;;;;;5068240;28;20297;-73
2023/02/11 06:52:52;;;;;;;8.32;2.60;;;29.90;56.80;;;;;;5071106;28;20716;-78
2023/02/11 06:55:19;;;;;;;6.23;2.30;;;29.30;57.80;;;;;;5072929;28;20183;-77
2023/02/11 06:57:46;;;;;;;10.70;2.65;;;28.90;59.30;;;;;;5068031;28;20237;-72
2023/02/11 07:00:14;;;;;;;10.85;2.80;;;28.80;60.80;;;;;;5069755;28;20179;-78
2023/02/11 07:02:41;;;;;;;10.07;2.30;;;28.50;61.70;;;;;;5070163;28;20190;-74
2023/02/11 07:05:09;;;;;;;12.07;3.27;;;28.30;62.10;;;;;;5071197;28;20286;-70
2023/02/11 07:07:37;;;;;;;11.60;2.60;;;28.20;61.80;;;;;;5072763;28;20299;-74
2023/02/11 07:10:05;;;;;;;10.23;2.53;;;28.20;61.10;;;;;;5072693;28;20179;-75
2023/02/11 07:12:32;;;;;;;9.63;4.40;;;29.00;59.60;;;;;;5070449;28;20263;-73
2023/02/11 07:15:00;;;;;;;16.23;4.00;;;30.30;55.30;;;;;;5071433;28;20236;-75
2023/02/11 07:17:27;;;;;;;14.43;6.20;;;30.80;54.60;;;;;;5064915;28;20183;-77
2023/02/11 07:19:54;;;;;;;24.70;11.63;;;29.50;57.70;;;;;;5070901;28;20278;-73
2023/02/11 07:22:22;;;;;;;13.93;3.72;;;28.90;60.00;;;;;;5072892;28;20179;-75
2023/02/11 07:24:49;;;;;;;10.23;2.70;;;28.50;61.60;;;;;;5070677;28;20187;-72
2023/02/11 07:27:16;;;;;;;10.73;2.93;;;29.00;60.30;;;;;;5069236;28;20187;-77
2023/02/11 07:29:45;;;;;;;10.70;2.40;;;29.50;57.70;;;;;;5071784;28;20202;-76
2023/02/11 07:32:13;;;;;;;12.57;2.97;;;30.00;56.60;;;;;;5072689;28;20529;-76
2023/02/11 07:34:41;;;;;;;11.10;2.93;;;30.30;56.30;;;;;;5065248;28;20187;-72
2023/02/11 07:37:09;;;;;;;11.50;3.20;;;30.50;56.50;;;;;;5072202;28;20194;-70
2023/02/11 07:39:37;;;;;;;9.57;2.42;;;30.30;55.30;;;;;;5071413;28;20225;-77
2023/02/11 07:42:04;;;;;;;11.45;2.90;;;29.80;56.60;;;;;;5071468;28;20175;-72
2023/02/11 07:44:32;;;;;;;10.00;2.72;;;29.90;55.90;;;;;;5068885;28;20187;-69
2023/02/11 07:46:59;;;;;;;8.20;2.57;;;29.90;56.10;;;;;;5068267;28;20244;-66
2023/02/11 07:49:27;;;;;;;9.00;2.87;;;29.50;56.60;;;;;;5071976;28;20646;-69
2023/02/11 07:51:54;;;;;;;8.27;2.60;;;29.30;57.00;;;;;;5072052;28;20223;-69
2023/02/11 07:54:22;;;;;;;11.05;2.50;;;29.10;57.70;;;;;;5071294;28;20187;-67
2023/02/11 07:56:49;;;;;;;14.00;2.97;;;28.60;58.50;;;;;;5072334;28;20179;-69
2023/02/11 07:59:16;;;;;;;10.93;2.63;;;28.40;59.10;;;;;;5067116;28;20226;-71
2023/02/11 08:01:44;;;;;;;9.60;2.40;;;28.00;59.80;;;;;;5071944;28;20185;-70
2023/02/11 08:04:11;;;;;;;11.90;3.30;;;27.60;61.30;;;;;;5071322;28;20186;-69
2023/02/11 08:06:42;;;;;;;15.90;2.80;;;27.50;61.60;;;;;;5069497;28;20182;-68
2023/02/11 08:09:15;;;;;;;8.10;2.97;;;27.50;61.70;;;;;;5067865;28;20172;-70
2023/02/11 08:11:42;;;;;;;8.97;2.40;;;27.50;61.70;;;;;;5071447;28;20270;-67
2023/02/11 08:14:10;;;;;;;11.70;3.13;;;27.50;61.30;;;;;;5066121;28;20729;-70
2023/02/11 08:16:38;;;;;;;8.50;2.87;;;27.40;61.20;;;;;;5063705;28;20176;-70
2023/02/11 08:19:12;;;;;;;11.00;2.50;;;27.40;61.60;;;;;;5068482;28;20594;-75
2023/02/11 08:21:40;;;;;;;9.67;2.50;;;27.30;60.70;;;;;;5069620;28;20701;-71
2023/02/11 08:24:08;;;;;;;12.10;2.73;;;27.20;61.30;;;;;;5070557;28;20236;-68
2023/02/11 08:26:36;;;;;;;13.77;3.50;;;27.20;61.50;;;;;;5070770;28;20180;-68
2023/02/11 08:29:11;;;;;;;10.07;3.17;;;27.20;60.20;;;;;;5069143;28;20183;-68
2023/02/11 08:31:41;;;;;;;13.83;3.20;;;27.20;60.90;;;;;;5071484;28;20178;-79
2023/02/11 08:34:10;;;;;;;7.87;2.60;;;27.00;60.80;;;;;;5071521;28;20195;-74
2023/02/11 08:36:38;;;;;;;10.90;2.80;;;27.20;60.10;;;;;;5070934;28;20274;-69
2023/02/11 08:39:08;;;;;;;8.67;3.23;;;27.20;59.00;;;;;;5066826;28;20237;-78
2023/02/11 08:41:36;;;;;;;10.30;2.53;;;27.20;59.10;;;;;;5071718;28;20638;-73
2023/02/11 08:44:03;;;;;;;10.33;2.63;;;27.30;58.50;;;;;;5068373;28;20218;-70
2023/02/11 08:46:31;;;;;;;10.83;3.10;;;27.20;57.70;;;;;;5069093;28;20193;-73
2023/02/11 08:48:58;;;;;;;9.20;2.33;;;27.30;58.10;;;;;;5071456;28;20606;-77
2023/02/11 08:51:29;;;;;;;6.17;2.30;;;27.30;57.90;;;;;;5067796;28;20202;-71
2023/02/11 08:53:56;;;;;;;6.73;2.20;;;27.30;56.60;;;;;;5066363;28;20207;-80
2023/02/11 08:56:24;;;;;;;9.23;2.50;;;27.30;55.80;;;;;;5069481;28;20179;-73
2023/02/11 08:58:53;;;;;;;9.00;2.53;;;27.30;55.50;;;;;;5071303;28;20701;-75
2023/02/11 09:01:25;;;;;;;9.77;2.70;;;27.40;55.40;;;;;;5071045;28;20250;-75
2023/02/11 09:03:54;;;;;;;9.03;2.40;;;27.40;54.50;;;;;;5070091;28;20187;-75
2023/02/11 09:06:22;;;;;;;11.33;2.70;;;27.40;54.30;;;;;;5067698;28;20186;-70
2023/02/11 09:08:52;;;;;;;7.80;2.77;;;27.40;54.80;;;;;;5066299;28;20183;-71
2023/02/11 09:11:24;;;;;;;9.20;2.63;;;27.40;54.50;;;;;;5069272;28;20180;-75
2023/02/11 09:13:51;;;;;;;12.43;3.67;;;27.30;54.80;;;;;;5070466;28;20191;-75
2023/02/11 09:16:21;;;;;;;9.67;2.63;;;27.40;55.20;;;;;;5070449;28;20213;-73
2023/02/11 09:18:49;;;;;;;10.70;2.53;;;27.40;55.90;;;;;;5065718;28;20219;-71
2023/02/11 09:21:18;;;;;;;11.10;3.03;;;27.40;56.60;;;;;;5068936;28;20175;-77
2023/02/11 09:23:46;;;;;;;9.57;2.60;;;27.30;57.90;;;;;;5070194;28;20187;-75
2023/02/11 09:26:23;;;;;;;11.37;3.07;;;27.30;58.70;;;;;;5071203;28;20183;-72
2023/02/11 09:28:51;;;;;;;8.40;2.50;;;27.30;59.00;;;;;;5070177;28;20561;-74
2023/02/11 09:31:21;;;;;;;10.73;2.63;;;27.20;59.00;;;;;;5064873;28;20646;-70
2023/02/11 09:33:51;;;;;;;15.90;3.33;;;27.10;59.50;;;;;;5065915;28;20759;-70
2023/02/11 09:36:21;;;;;;;13.40;3.10;;;27.20;59.40;;;;;;5062887;28;20191;-72
2023/02/11 09:38:49;;;;;;;10.97;3.10;;;27.00;59.90;;;;;;5065124;28;20728;-75
2023/02/11 09:41:41;;;;;;;11.47;2.93;;;27.00;60.30;;;;;;5066369;28;20176;-79
2023/02/11 09:44:17;;;;;;;11.83;3.20;;;26.90;60.60;;;;;;5072858;28;20171;-73
2023/02/11 09:47:08;;;;;;;18.40;3.30;;;26.90;61.30;;;;;;5074300;28;20257;-72
2023/02/11 09:50:15;;;;;;;10.23;3.07;;;26.80;62.00;;;;;;5067874;28;20260;-75
2023/02/11 09:53:11;;;;;;;14.50;3.10;;;26.70;62.70;;;;;;5066388;28;20240;-75
2023/02/11 09:55:44;;;;;;;10.03;2.90;;;26.70;63.80;;;;;;5072777;28;20217;-76
2023/02/11 09:58:25;;;;;;;19.27;3.80;;;26.50;65.10;;;;;;5074013;28;20206;-72
2023/02/11 10:00:58;;;;;;;14.97;3.27;;;26.50;66.10;;;;;;5073858;28;20653;-72
2023/02/11 10:03:49;;;;;;;12.77;2.97;;;26.50;67.10;;;;;;5074460;28;20665;-77
2023/02/11 10:06:29;;;;;;;15.17;3.73;;;26.30;68.10;;;;;;5074116;28;20190;-71
2023/02/11 10:09:27;;;;;;;25.70;3.97;;;26.30;68.50;;;;;;5061565;28;20176;-73
2023/02/11 10:12:30;;;;;;;16.27;3.50;;;26.30;68.90;;;;;;5069128;28;20180;-69
2023/02/11 10:15:07;;;;;;;18.30;3.70;;;26.30;69.80;;;;;;5071564;28;20182;-68
2023/02/11 10:18:01;;;;;;;14.07;3.10;;;26.30;70.20;;;;;;5073366;28;20181;-69
2023/02/11 10:20:43;;;;;;;16.30;3.77;;;26.30;70.50;;;;;;5073844;28;20191;-69
2023/02/11 10:23:27;;;;;;;16.30;3.53;;;26.30;70.90;;;;;;5067799;28;20210;-70
2023/02/11 10:25:56;;;;;;;15.73;3.53;;;26.30;71.20;;;;;;5074001;28;20183;-70
2023/02/11 10:28:30;;;;;;;16.47;3.67;;;26.30;71.40;;;;;;5073871;28;20237;-68
2023/02/11 10:31:08;;;;;;;16.87;3.83;;;26.20;72.00;;;;;;5070201;28;20287;-70
2023/02/11 10:33:45;;;;;;;19.73;4.27;;;26.20;72.40;;;;;;5074137;28;20183;-70
2023/02/11 10:36:14;;;;;;;18.60;4.03;;;26.10;72.60;;;;;;5070216;28;20191;-70
2023/02/11 10:38:42;;;;;;;15.80;4.07;;;26.10;73.00;;;;;;5071967;28;20218;-75
2023/02/11 10:41:19;;;;;;;20.97;3.97;;;26.00;73.40;;;;;;5070256;28;20225;-68
2023/02/11 10:43:46;;;;;;;19.93;4.43;;;26.00;73.40;;;;;;5073551;28;20210;-71
2023/02/11 10:46:18;;;;;;;17.60;3.90;;;26.00;73.90;;;;;;5068543;28;20243;-70
2023/02/11 10:48:51;;;;;;;21.90;4.20;;;25.90;74.00;;;;;;5073323;28;20218;-70
2023/02/11 10:51:21;;;;;;;21.53;4.73;;;25.90;74.10;;;;;;5069396;28;21626;-69
2023/02/11 10:53:59;;;;;;;20.63;4.10;;;25.90;74.00;;;;;;5071782;28;20226;-76
2023/02/11 10:56:28;;;;;;;17.77;3.93;;;25.90;74.10;;;;;;5072550;28;20190;-71
2023/02/11 10:58:57;;;;;;;18.83;4.27;;;25.90;74.40;;;;;;5070602;28;20230;-74
2023/02/11 11:01:42;;;;;;;23.83;3.93;;;25.90;74.30;;;;;;5070836;28;20194;-74
2023/02/11 11:04:32;;;;;;;17.60;3.60;;;25.90;74.20;;;;;;5066760;28;20252;-74
2023/02/11 11:07:22;;;;;;;16.77;4.47;;;25.90;74.70;;;;;;5067239;28;20833;-75
2023/02/11 11:09:55;;;;;;;19.97;4.30;;;25.90;74.50;;;;;;5069744;28;20512;-81
2023/02/11 11:12:46;;;;;;;18.30;4.13;;;25.90;74.50;;;;;;5069608;28;20191;-73
2023/02/11 11:15:30;;;;;;;21.47;4.20;;;25.80;74.90;;;;;;5071746;28;20184;-73
2023/02/11 11:18:17;;;;;;;19.83;4.43;;;25.60;75.60;;;;;;5071535;28;20214;-77
2023/02/11 11:20:57;;;;;;;21.90;4.27;;;25.50;76.20;;;;;;5067767;28;20167;-73
2023/02/11 11:23:25;;;;;;;19.47;4.40;;;25.40;76.40;;;;;;5068354;28;20190;-73
2023/02/11 11:26:09;;;;;;;22.07;7.30;;;25.30;76.80;;;;;;5072858;28;20211;-72
2023/02/11 11:28:49;;;;;;;19.83;4.97;;;25.30;77.00;;;;;;5071803;28;20618;-73
2023/02/11 11:31:28;;;;;;;21.90;4.87;;;25.30;77.30;;;;;;5072229;28;20186;-75
2023/02/11 11:33:58;;;;;;;19.43;3.97;;;25.30;77.40;;;;;;5071838;28;20304;-73
2023/02/11 11:36:36;;;;;;;23.57;4.87;;;25.20;77.50;;;;;;5066933;28;20183;-73
2023/02/11 11:39:24;;;;;;;24.43;4.50;;;25.20;77.70;;;;;;5071009;28;20218;-72
2023/02/11 11:41:54;;;;;;;23.30;4.53;;;25.20;77.90;;;;;;5070779;28;20186;-78
2023/02/11 11:44:28;;;;;;;24.57;4.33;;;25.10;78.20;;;;;;5072695;28;20266;-72
2023/02/11 11:47:19;;;;;;;16.17;4.10;;;25.10;78.30;;;;;;5072619;28;20266;-71
2023/02/11 11:50:22;;;;;;;20.07;4.23;;;25.00;78.40;;;;;;5070586;28;20179;-72
2023/02/11 11:52:56;;;;;;;28.53;4.57;;;25.00;78.70;;;;;;5053848;28;20576;-73
2023/02/11 11:55:41;;;;;;;15.13;4.47;;;25.00;78.70;;;;;;5071364;28;20187;-72
2023/02/11 11:58:21;;;;;;;19.87;4.57;;;25.00;78.60;;;;;;5065031;28;20622;-74
2023/02/11 12:01:03;;;;;;;18.70;4.17;;;25.00;78.70;;;;;;5069537;28;20758;-74
2023/02/11 12:03:39;;;;;;;21.00;4.23;;;24.90;78.80;;;;;;5071026;28;20204;-75
2023/02/11 12:06:24;;;;;;;17.13;4.27;;;24.90;79.00;;;;;;5069543;28;20191;-73
2023/02/11 12:09:34;;;;;;;15.77;3.90;;;24.80;79.10;;;;;;5070656;28;20221;-73
2023/02/11 12:12:22;;;;;;;16.60;4.17;;;24.90;78.90;;;;;;5038872;28;20612;-74
2023/02/11 12:14:57;;;;;;;16.23;3.80;;;24.80;79.00;;;;;;5068394;28;20214;-71
2023/02/11 12:17:43;;;;;;;23.60;3.93;;;24.80;79.10;;;;;;5069098;28;20576;-72
2023/02/11 12:20:46;;;;;;;19.93;4.07;;;24.80;79.50;;;;;;5071145;28;20544;-71
2023/02/11 12:23:54;;;;;;;19.47;3.70;;;24.80;79.70;;;;;;5069004;28;20175;-74
2023/02/11 12:26:39;;;;;;;17.60;4.43;;;24.70;80.00;;;;;;5069320;28;20187;-71
2023/02/11 12:29:39;;;;;;;22.63;4.33;;;24.60;80.40;;;;;;5070404;28;20202;-73
2023/02/11 12:33:03;;;;;;;22.50;4.27;;;24.50;80.60;;;;;;5071672;28;20676;-73
2023/02/11 12:35:39;;;;;;;21.10;4.47;;;24.50;80.80;;;;;;5041680;28;20263;-70
2023/02/11 12:38:42;;;;;;;13.73;4.00;;;24.50;81.10;;;;;;5048367;28;20222;-71
2023/02/11 12:44:41;;;;;;;21.53;4.70;;;24.40;81.10;;;;;;5071313;28;20266;-71
2023/02/11 12:47:52;;;;;;;22.13;4.40;;;24.40;81.10;;;;;;5061138;28;20187;-71
2023/02/11 12:50:34;;;;;;;21.00;4.33;;;24.40;81.10;;;;;;5056433;28;20199;-71
2023/02/11 12:53:16;;;;;;;21.57;5.07;;;24.30;81.40;;;;;;5059295;28;20284;-71
2023/02/11 12:55:50;;;;;;;18.67;4.40;;;24.30;81.60;;;;;;5066045;28;20194;-71
2023/02/11 12:58:22;;;;;;;24.47;4.20;;;24.30;81.50;;;;;;5070152;28;20673;-71
2023/02/11 13:01:17;;;;;;;20.97;4.27;;;24.30;81.80;;;;;;5067902;28;20175;-71
2023/02/11 13:03:53;;;;;;;19.40;4.07;;;24.30;82.00;;;;;;5071665;28;20226;-70
2023/02/11 13:06:30;;;;;;;24.23;4.70;;;24.30;81.80;;;;;;5070154;28;20182;-70
2023/02/11 13:09:09;;;;;;;21.07;4.20;;;24.20;82.10;;;;;;5071532;28;20199;-71
2023/02/11 13:11:50;;;;;;;20.60;4.37;;;24.20;82.10;;;;;;5071633;28;20187;-70
2023/02/11 13:14:40;;;;;;;21.47;4.27;;;24.10;82.20;;;;;;5070911;28;20175;-71
2023/02/11 13:17:17;;;;;;;22.33;3.60;;;24.10;82.20;;;;;;5072127;28;20179;-71
2023/02/11 13:20:27;;;;;;;17.87;4.07;;;24.00;82.20;;;;;;5071329;28;20219;-71
2023/02/11 13:23:15;;;;;;;24.20;4.03;;;23.90;82.70;;;;;;5066095;28;20176;-72
2023/02/11 13:26:31;;;;;;;16.17;4.00;;;23.90;82.90;;;;;;5074557;28;20183;-72
2023/02/11 13:29:18;;;;;;;17.10;4.50;;;23.80;82.90;;;;;;5049837;28;20198;-72